sensor_id;sensor_type;location;lat;lon;timestamp;pressure;altitude;pressure_sealevel;temperature;humidity
6132;BME280;3097;42.692;23.278;2023-03-25T00:01:01;94743.44;;;9.81;77.04
6132;BME280;3097;42.692;23.278;2023-03-25T00:03:31;94761.28;;;9.94;76.65
6132;BME280;3097;42.692;23.278;2023-03-25T00:05:59;94703.75;;;9.58;76.71
6132;BME280;3097;42.692;23.278;2023-03-25T00:08:26;94755.88;;;9.84;76.57
6132;BME280;3097;42.692;23.278;2023-03-25T00:10:56;94735.53;;;9.64;76.72
6132;BME280;3097;42.692;23.278;2023-03-25T00:13:23;94716.72;;;9.52;77.04
6132;BME280;3097;42.692;23.278;2023-03-25T00:15:52;94747.88;;;9.74;76.95
6132;BME280;3097;42.692;23.278;2023-03-25T00:18:23;94731.63;;;9.61;76.95
6132;BME280;3097;42.692;23.278;2023-03-25T00:20:49;94701.38;;;9.45;76.87
6132;BME280;3097;42.692;23.278;2023-03-25T00:23:16;94736.72;;;9.50;77.70
6132;BME280;3097;42.692;23.278;2023-03-25T00:25:41;94728.47;;;9.59;77.39
6132;BME280;3097;42.692;23.278;2023-03-25T00:28:10;94723.66;;;9.63;77.20
6132;BME280;3097;42.692;23.278;2023-03-25T00:30:40;94725.78;;;9.54;77.70
6132;BME280;3097;42.692;23.278;2023-03-25T00:33:06;94712.66;;;9.44;77.75
6132;BME280;3097;42.692;23.278;2023-03-25T00:35:36;94728.13;;;9.56;77.53
6132;BME280;3097;42.692;23.278;2023-03-25T00:38:01;94729.97;;;9.37;78.00
6132;BME280;3097;42.692;23.278;2023-03-25T00:40:29;94734.91;;;9.39;78.03
6132;BME280;3097;42.692;23.278;2023-03-25T00:42:59;94729.75;;;9.39;78.18
6132;BME280;3097;42.692;23.278;2023-03-25T00:45:25;94694.13;;;9.24;77.82
6132;BME280;3097;42.692;23.278;2023-03-25T00:47:50;94715.41;;;9.31;78.44
6132;BME280;3097;42.692;23.278;2023-03-25T00:50:16;94706.31;;;9.10;79.09
6132;BME280;3097;42.692;23.278;2023-03-25T00:52:41;94718.47;;;9.21;78.78
6132;BME280;3097;42.692;23.278;2023-03-25T00:55:07;94715.41;;;9.13;79.46
6132;BME280;3097;42.692;23.278;2023-03-25T00:57:33;94708.84;;;9.17;79.10
6132;BME280;3097;42.692;23.278;2023-03-25T00:59:58;94719.88;;;9.17;78.97
6132;BME280;3097;42.692;23.278;2023-03-25T01:02:24;94702.84;;;9.05;79.57
6132;BME280;3097;42.692;23.278;2023-03-25T01:04:49;94707.69;;;9.13;79.58
6132;BME280;3097;42.692;23.278;2023-03-25T01:07:16;94709.97;;;9.21;79.18
6132;BME280;3097;42.692;23.278;2023-03-25T01:09:42;94675.44;;;8.99;79.35
6132;BME280;3097;42.692;23.278;2023-03-25T01:12:10;94632.59;;;8.74;78.83
6132;BME280;3097;42.692;23.278;2023-03-25T01:14:36;94656.22;;;9.01;78.59
6132;BME280;3097;42.692;23.278;2023-03-25T01:17:01;94692.84;;;9.15;78.48
6132;BME280;3097;42.692;23.278;2023-03-25T01:19:27;94704.53;;;9.11;78.74
6132;BME280;3097;42.692;23.278;2023-03-25T01:21:53;94676.59;;;8.84;78.97
6132;BME280;3097;42.692;23.278;2023-03-25T01:24:18;94669.44;;;8.86;78.87
6132;BME280;3097;42.692;23.278;2023-03-25T01:26:44;94633.41;;;8.57;79.24
6132;BME280;3097;42.692;23.278;2023-03-25T01:29:12;94685.41;;;8.88;79.56
6132;BME280;3097;42.692;23.278;2023-03-25T01:31:37;94610.06;;;8.40;79.78
6132;BME280;3097;42.692;23.278;2023-03-25T01:34:03;94640.69;;;8.60;80.22
6132;BME280;3097;42.692;23.278;2023-03-25T01:36:29;94666.88;;;8.68;80.79
6132;BME280;3097;42.692;23.278;2023-03-25T01:38:55;94670.03;;;8.70;81.20
6132;BME280;3097;42.692;23.278;2023-03-25T01:41:22;94611.94;;;8.33;80.92
6132;BME280;3097;42.692;23.278;2023-03-25T01:44:09;94640.16;;;8.51;81.03
6132;BME280;3097;42.692;23.278;2023-03-25T01:46:54;94669.44;;;8.68;81.11
6132;BME280;3097;42.692;23.278;2023-03-25T01:51:58;94668.94;;;8.60;81.50
6132;BME280;3097;42.692;23.278;2023-03-25T01:54:26;94668.72;;;8.61;81.34
6132;BME280;3097;42.692;23.278;2023-03-25T01:56:52;94664.72;;;8.65;81.16
6132;BME280;3097;42.692;23.278;2023-03-25T01:59:20;94628.66;;;8.35;81.07
6132;BME280;3097;42.692;23.278;2023-03-25T02:01:49;94660.81;;;8.63;80.91
6132;BME280;3097;42.692;23.278;2023-03-25T02:04:23;94658.88;;;8.58;81.13
6132;BME280;3097;42.692;23.278;2023-03-25T02:06:52;94638.31;;;8.40;81.23
6132;BME280;3097;42.692;23.278;2023-03-25T02:09:21;94647.66;;;8.52;80.88
6132;BME280;3097;42.692;23.278;2023-03-25T02:11:48;94628.47;;;8.37;80.98
6132;BME280;3097;42.692;23.278;2023-03-25T02:14:19;94637.88;;;8.43;81.19
6132;BME280;3097;42.692;23.278;2023-03-25T02:22:22;94648.47;;;8.53;81.13
6132;BME280;3097;42.692;23.278;2023-03-25T02:42:04;94639.75;;;8.29;81.84
6132;BME280;3097;42.692;23.278;2023-03-25T02:44:40;94650.09;;;8.23;82.16
6132;BME280;3097;42.692;23.278;2023-03-25T02:47:14;94625.63;;;8.20;81.76
6132;BME280;3097;42.692;23.278;2023-03-25T02:49:48;94632.84;;;8.30;81.35
6132;BME280;3097;42.692;23.278;2023-03-25T02:52:19;94636.84;;;8.26;82.05
6132;BME280;3097;42.692;23.278;2023-03-25T02:54:50;94624.34;;;8.11;82.23
6132;BME280;3097;42.692;23.278;2023-03-25T02:57:18;94632.97;;;8.16;82.18
6132;BME280;3097;42.692;23.278;2023-03-25T02:59:47;94628.97;;;8.21;81.84
6132;BME280;3097;42.692;23.278;2023-03-25T03:02:14;94626.41;;;8.21;81.87
6132;BME280;3097;42.692;23.278;2023-03-25T03:07:17;94626.22;;;8.22;81.66
6132;BME280;3097;42.692;23.278;2023-03-25T03:09:51;94574.25;;;7.84;82.20
6132;BME280;3097;42.692;23.278;2023-03-25T03:13:07;94620.34;;;8.15;82.26
6132;BME280;3097;42.692;23.278;2023-03-25T03:18:01;94625.28;;;8.16;81.93
6132;BME280;3097;42.692;23.278;2023-03-25T03:20:36;94636.09;;;8.00;83.04
6132;BME280;3097;42.692;23.278;2023-03-25T03:23:11;94638.81;;;8.05;83.08
6132;BME280;3097;42.692;23.278;2023-03-25T03:26:07;94639.38;;;8.07;82.53
6132;BME280;3097;42.692;23.278;2023-03-25T03:31:13;94619.97;;;7.93;82.88
6132;BME280;3097;42.692;23.278;2023-03-25T03:33:53;94620.03;;;7.87;83.34
6132;BME280;3097;42.692;23.278;2023-03-25T03:36:25;94635.78;;;7.90;83.10
6132;BME280;3097;42.692;23.278;2023-03-25T03:39:00;94633.44;;;7.89;82.81
6132;BME280;3097;42.692;23.278;2023-03-25T03:41:30;94576.13;;;7.45;82.73
6132;BME280;3097;42.692;23.278;2023-03-25T03:44:11;94634.31;;;7.76;83.74
6132;BME280;3097;42.692;23.278;2023-03-25T03:46:50;94644.09;;;7.86;83.12
6132;BME280;3097;42.692;23.278;2023-03-25T03:49:21;94640.13;;;7.90;83.23
6132;BME280;3097;42.692;23.278;2023-03-25T03:51:52;94639.19;;;7.84;83.45
6132;BME280;3097;42.692;23.278;2023-03-25T03:54:26;94628.63;;;7.74;83.50
6132;BME280;3097;42.692;23.278;2023-03-25T03:57:01;94639.81;;;7.80;83.32
6132;BME280;3097;42.692;23.278;2023-03-25T04:02:31;94629.22;;;7.69;83.99
6132;BME280;3097;42.692;23.278;2023-03-25T04:04:58;94640.88;;;7.72;84.10
6132;BME280;3097;42.692;23.278;2023-03-25T04:07:39;94639.81;;;7.80;83.67
6132;BME280;3097;42.692;23.278;2023-03-25T04:12:42;94640.66;;;7.73;83.70
6132;BME280;3097;42.692;23.278;2023-03-25T04:15:10;94630.84;;;7.64;83.92
6132;BME280;3097;42.692;23.278;2023-03-25T04:17:35;94637.38;;;7.60;84.20
6132;BME280;3097;42.692;23.278;2023-03-25T04:20:01;94635.00;;;7.65;83.93
6132;BME280;3097;42.692;23.278;2023-03-25T04:22:33;94641.13;;;7.64;83.77
6132;BME280;3097;42.692;23.278;2023-03-25T04:24:58;94635.66;;;7.54;84.49
6132;BME280;3097;42.692;23.278;2023-03-25T04:27:24;94639.13;;;7.66;84.31
6132;BME280;3097;42.692;23.278;2023-03-25T04:29:54;94635.97;;;7.64;84.31
6132;BME280;3097;42.692;23.278;2023-03-25T04:32:22;94628.16;;;7.52;84.63
6132;BME280;3097;42.692;23.278;2023-03-25T04:34:47;94628.94;;;7.53;84.72
6132;BME280;3097;42.692;23.278;2023-03-25T04:37:13;94645.47;;;7.63;84.34
6132;BME280;3097;42.692;23.278;2023-03-25T04:39:39;94645.00;;;7.73;83.75
6132;BME280;3097;42.692;23.278;2023-03-25T04:42:04;94630.84;;;7.64;83.92
6132;BME280;3097;42.692;23.278;2023-03-25T04:44:30;94638.69;;;7.69;84.14
6132;BME280;3097;42.692;23.278;2023-03-25T04:46:58;94624.09;;;7.69;84.09
6132;BME280;3097;42.692;23.278;2023-03-25T04:49:24;94645.03;;;7.91;83.77
6132;BME280;3097;42.692;23.278;2023-03-25T04:51:52;94648.56;;;7.97;83.81
6132;BME280;3097;42.692;23.278;2023-03-25T04:54:20;94649.06;;;8.05;83.54
6132;BME280;3097;42.692;23.278;2023-03-25T04:56:50;94650.03;;;8.11;83.72
6132;BME280;3097;42.692;23.278;2023-03-25T04:59:16;94646.03;;;8.40;83.03
6132;BME280;3097;42.692;23.278;2023-03-25T05:01:43;94601.59;;;8.87;82.83
6132;BME280;3097;42.692;23.278;2023-03-25T05:04:10;94554.94;;;9.55;76.79
6132;BME280;3097;42.692;23.278;2023-03-25T05:06:40;94642.47;;;11.23;70.81
6132;BME280;3097;42.692;23.278;2023-03-25T05:09:12;94651.59;;;12.21;65.87
6132;BME280;3097;42.692;23.278;2023-03-25T05:11:38;94594.19;;;12.58;62.52
6132;BME280;3097;42.692;23.278;2023-03-25T05:14:07;94626.88;;;13.61;59.64
6132;BME280;3097;42.692;23.278;2023-03-25T05:16:32;94648.78;;;14.44;56.95
6132;BME280;3097;42.692;23.278;2023-03-25T05:18:58;94647.09;;;15.22;54.79
6132;BME280;3097;42.692;23.278;2023-03-25T05:21:23;94649.56;;;15.95;52.54
6132;BME280;3097;42.692;23.278;2023-03-25T05:23:49;94628.19;;;16.69;49.51
6132;BME280;3097;42.692;23.278;2023-03-25T05:26:17;94625.72;;;17.52;47.41
6132;BME280;3097;42.692;23.278;2023-03-25T05:28:43;94644.78;;;17.91;46.88
6132;BME280;3097;42.692;23.278;2023-03-25T05:31:09;94603.38;;;18.71;44.10
6132;BME280;3097;42.692;23.278;2023-03-25T05:33:36;94628.31;;;19.67;42.14
6132;BME280;3097;42.692;23.278;2023-03-25T05:36:13;94625.00;;;20.13;40.53
6132;BME280;3097;42.692;23.278;2023-03-25T05:38:41;94635.16;;;20.33;40.15
6132;BME280;3097;42.692;23.278;2023-03-25T05:41:16;94641.25;;;20.29;39.96
6132;BME280;3097;42.692;23.278;2023-03-25T05:43:42;94609.28;;;19.24;41.59
6132;BME280;3097;42.692;23.278;2023-03-25T05:46:16;94635.84;;;18.02;43.85
6132;BME280;3097;42.692;23.278;2023-03-25T05:48:42;94631.47;;;16.94;46.47
6132;BME280;3097;42.692;23.278;2023-03-25T05:51:16;94641.25;;;16.18;49.71
6132;BME280;3097;42.692;23.278;2023-03-25T05:53:44;94646.94;;;15.59;51.93
6132;BME280;3097;42.692;23.278;2023-03-25T05:56:14;94632.72;;;14.94;54.10
6132;BME280;3097;42.692;23.278;2023-03-25T05:58:46;94635.66;;;14.61;55.33
6132;BME280;3097;42.692;23.278;2023-03-25T06:01:13;94640.59;;;14.20;56.42
6132;BME280;3097;42.692;23.278;2023-03-25T06:03:40;94631.13;;;14.04;57.24
6132;BME280;3097;42.692;23.278;2023-03-25T06:06:12;94627.81;;;15.03;54.94
6132;BME280;3097;42.692;23.278;2023-03-25T06:08:48;94636.56;;;16.60;50.46
6132;BME280;3097;42.692;23.278;2023-03-25T06:11:18;94621.31;;;17.91;45.72
6132;BME280;3097;42.692;23.278;2023-03-25T06:13:45;94609.28;;;19.43;41.29
6132;BME280;3097;42.692;23.278;2023-03-25T06:16:15;94625.41;;;20.53;40.04
6132;BME280;3097;42.692;23.278;2023-03-25T06:18:43;94526.22;;;21.01;37.73
6132;BME280;3097;42.692;23.278;2023-03-25T06:21:09;94609.06;;;22.63;35.94
6132;BME280;3097;42.692;23.278;2023-03-25T06:23:35;94539.09;;;22.75;34.22
6132;BME280;3097;42.692;23.278;2023-03-25T06:26:03;94609.59;;;24.25;33.86
6132;BME280;3097;42.692;23.278;2023-03-25T06:28:29;94619.19;;;24.85;32.07
6132;BME280;3097;42.692;23.278;2023-03-25T06:30:57;94615.69;;;25.39;31.29
6132;BME280;3097;42.692;23.278;2023-03-25T06:33:23;94619.03;;;25.90;31.33
6132;BME280;3097;42.692;23.278;2023-03-25T06:35:49;94559.88;;;26.48;28.61
6132;BME280;3097;42.692;23.278;2023-03-25T06:38:18;94613.50;;;27.30;28.35
6132;BME280;3097;42.692;23.278;2023-03-25T06:40:44;94615.31;;;27.79;26.98
6132;BME280;3097;42.692;23.278;2023-03-25T06:43:09;94617.22;;;27.66;27.41
6132;BME280;3097;42.692;23.278;2023-03-25T06:45:35;94614.38;;;27.34;27.27
6132;BME280;3097;42.692;23.278;2023-03-25T06:48:00;94617.13;;;27.38;27.83
6132;BME280;3097;42.692;23.278;2023-03-25T06:50:26;94621.28;;;28.03;26.78
6132;BME280;3097;42.692;23.278;2023-03-25T06:52:52;94603.34;;;28.12;26.83
6132;BME280;3097;42.692;23.278;2023-03-25T06:55:17;94538.59;;;28.26;26.11
6132;BME280;3097;42.692;23.278;2023-03-25T06:57:42;94593.19;;;29.56;24.62
6132;BME280;3097;42.692;23.278;2023-03-25T07:00:09;94605.31;;;29.92;24.26
6132;BME280;3097;42.692;23.278;2023-03-25T07:02:37;94621.34;;;30.34;23.87
6132;BME280;3097;42.692;23.278;2023-03-25T07:05:03;94508.38;;;30.05;24.16
6132;BME280;3097;42.692;23.278;2023-03-25T07:07:29;94604.66;;;30.79;23.37
6132;BME280;3097;42.692;23.278;2023-03-25T07:09:54;94598.44;;;30.07;24.13
6132;BME280;3097;42.692;23.278;2023-03-25T07:12:23;94602.91;;;30.90;23.69
6132;BME280;3097;42.692;23.278;2023-03-25T07:14:52;94619.16;;;31.31;23.37
6132;BME280;3097;42.692;23.278;2023-03-25T07:17:18;94623.53;;;31.16;22.92
6132;BME280;3097;42.692;23.278;2023-03-25T07:19:44;94607.78;;;31.60;23.33
6132;BME280;3097;42.692;23.278;2023-03-25T07:22:09;94609.56;;;32.09;22.41
6132;BME280;3097;42.692;23.278;2023-03-25T07:24:35;94587.13;;;31.80;22.45
6132;BME280;3097;42.692;23.278;2023-03-25T07:27:02;94610.91;;;31.96;22.56
6132;BME280;3097;42.692;23.278;2023-03-25T07:29:27;94610.28;;;32.39;23.11
6132;BME280;3097;42.692;23.278;2023-03-25T07:31:52;94610.25;;;32.06;21.73
6132;BME280;3097;42.692;23.278;2023-03-25T07:34:18;94574.06;;;31.71;22.98
6132;BME280;3097;42.692;23.278;2023-03-25T07:36:43;94604.47;;;31.67;23.08
6132;BME280;3097;42.692;23.278;2023-03-25T07:39:09;94593.47;;;31.42;22.97
6132;BME280;3097;42.692;23.278;2023-03-25T07:41:34;94556.72;;;31.28;24.20
6132;BME280;3097;42.692;23.278;2023-03-25T07:44:00;94556.75;;;30.79;23.81
6132;BME280;3097;42.692;23.278;2023-03-25T07:46:25;94602.06;;;30.60;23.88
6132;BME280;3097;42.692;23.278;2023-03-25T07:48:51;94562.03;;;29.02;25.13
6132;BME280;3097;42.692;23.278;2023-03-25T07:51:16;94602.69;;;28.59;26.50
6132;BME280;3097;42.692;23.278;2023-03-25T07:53:42;94506.22;;;27.49;27.49
6132;BME280;3097;42.692;23.278;2023-03-25T07:56:10;94596.91;;;27.46;28.26
6132;BME280;3097;42.692;23.278;2023-03-25T07:58:36;94582.59;;;26.62;30.20
6132;BME280;3097;42.692;23.278;2023-03-25T08:01:02;94581.16;;;26.07;30.23
6132;BME280;3097;42.692;23.278;2023-03-25T08:03:27;94549.50;;;25.24;31.05
6132;BME280;3097;42.692;23.278;2023-03-25T08:05:53;94581.13;;;25.03;31.59
6132;BME280;3097;42.692;23.278;2023-03-25T08:08:18;94572.41;;;24.73;32.67
6132;BME280;3097;42.692;23.278;2023-03-25T08:10:44;94557.06;;;24.66;32.79
6132;BME280;3097;42.692;23.278;2023-03-25T08:13:12;94573.59;;;24.84;32.50
6132;BME280;3097;42.692;23.278;2023-03-25T08:15:39;94572.09;;;24.66;32.81
6132;BME280;3097;42.692;23.278;2023-03-25T08:18:05;94552.56;;;24.67;32.75
6132;BME280;3097;42.692;23.278;2023-03-25T08:20:34;94534.66;;;24.81;32.64
6132;BME280;3097;42.692;23.278;2023-03-25T08:23:00;94570.66;;;25.15;32.37
6132;BME280;3097;42.692;23.278;2023-03-25T08:25:27;94537.00;;;24.45;32.83
6132;BME280;3097;42.692;23.278;2023-03-25T08:27:54;94575.41;;;24.54;32.90
6132;BME280;3097;42.692;23.278;2023-03-25T08:30:22;94540.66;;;24.23;33.53
6132;BME280;3097;42.692;23.278;2023-03-25T08:32:47;94574.38;;;24.38;33.07
6132;BME280;3097;42.692;23.278;2023-03-25T08:35:19;94573.50;;;24.17;33.77
6132;BME280;3097;42.692;23.278;2023-03-25T08:37:44;94554.19;;;23.61;33.96
6132;BME280;3097;42.692;23.278;2023-03-25T08:40:10;94524.31;;;23.14;34.58
6132;BME280;3097;42.692;23.278;2023-03-25T08:42:37;94552.53;;;22.74;35.47
6132;BME280;3097;42.692;23.278;2023-03-25T08:45:04;94558.19;;;22.28;36.51
6132;BME280;3097;42.692;23.278;2023-03-25T08:47:30;94558.34;;;21.78;37.44
6132;BME280;3097;42.692;23.278;2023-03-25T08:49:58;94494.25;;;21.26;38.23
6132;BME280;3097;42.692;23.278;2023-03-25T08:52:23;94524.53;;;21.77;37.94
6132;BME280;3097;42.692;23.278;2023-03-25T08:54:49;94553.56;;;22.25;37.03
6132;BME280;3097;42.692;23.278;2023-03-25T08:57:15;94548.41;;;22.20;37.48
6132;BME280;3097;42.692;23.278;2023-03-25T08:59:40;94549.03;;;22.17;37.06
6132;BME280;3097;42.692;23.278;2023-03-25T09:02:06;94446.63;;;21.33;37.86
6132;BME280;3097;42.692;23.278;2023-03-25T09:04:31;94526.97;;;21.51;37.98
6132;BME280;3097;42.692;23.278;2023-03-25T09:06:57;94536.97;;;21.27;38.43
6132;BME280;3097;42.692;23.278;2023-03-25T09:09:22;94520.16;;;21.14;38.77
6132;BME280;3097;42.692;23.278;2023-03-25T09:11:48;94534.59;;;21.61;38.11
6132;BME280;3097;42.692;23.278;2023-03-25T09:14:14;94535.03;;;21.77;37.49
6132;BME280;3097;42.692;23.278;2023-03-25T09:16:39;94455.69;;;21.27;37.91
6132;BME280;3097;42.692;23.278;2023-03-25T09:19:05;94465.69;;;21.24;37.96
6132;BME280;3097;42.692;23.278;2023-03-25T09:21:30;94523.28;;;21.52;38.22
6132;BME280;3097;42.692;23.278;2023-03-25T09:23:56;94442.56;;;21.04;38.24
6132;BME280;3097;42.692;23.278;2023-03-25T09:26:21;94528.41;;;21.79;38.06
6132;BME280;3097;42.692;23.278;2023-03-25T09:28:47;94524.44;;;21.90;38.02
6132;BME280;3097;42.692;23.278;2023-03-25T09:31:12;94463.06;;;21.24;37.99
6132;BME280;3097;42.692;23.278;2023-03-25T09:33:39;94260.84;;;19.56;38.66
6132;BME280;3097;42.692;23.278;2023-03-25T09:36:04;94515.44;;;21.02;39.44
6132;BME280;3097;42.692;23.278;2023-03-25T09:38:31;94514.53;;;21.20;40.90
6132;BME280;3097;42.692;23.278;2023-03-25T09:40:56;94476.69;;;21.27;40.50
6132;BME280;3097;42.692;23.278;2023-03-25T09:44:42;94512.66;;;21.79;37.83
6132;BME280;3097;42.692;23.278;2023-03-25T09:46:36;94501.84;;;22.03;38.85
6132;BME280;3097;42.692;23.278;2023-03-25T09:49:02;94437.63;;;21.78;40.04
6132;BME280;3097;42.692;23.278;2023-03-25T09:51:33;94503.03;;;22.28;38.56
6132;BME280;3097;42.692;23.278;2023-03-25T09:54:21;94510.81;;;22.42;38.04
6132;BME280;3097;42.692;23.278;2023-03-25T09:56:49;94443.81;;;22.13;38.44
6132;BME280;3097;42.692;23.278;2023-03-25T09:59:21;94493.97;;;22.43;36.28
6132;BME280;3097;42.692;23.278;2023-03-25T10:02:06;94492.03;;;22.17;36.86
6132;BME280;3097;42.692;23.278;2023-03-25T10:07:52;94485.50;;;21.84;37.88
6132;BME280;3097;42.692;23.278;2023-03-25T10:21:50;94447.75;;;22.33;36.53
6132;BME280;3097;42.692;23.278;2023-03-25T10:24:20;94372.06;;;21.87;33.55
6132;BME280;3097;42.692;23.278;2023-03-25T10:26:49;94438.25;;;22.06;33.47
6132;BME280;3097;42.692;23.278;2023-03-25T10:29:20;94418.09;;;21.93;33.89
6132;BME280;3097;42.692;23.278;2023-03-25T10:31:58;94449.13;;;22.30;36.12
6132;BME280;3097;42.692;23.278;2023-03-25T10:34:38;94426.16;;;22.45;36.77
6132;BME280;3097;42.692;23.278;2023-03-25T10:37:10;94436.53;;;22.58;36.16
6132;BME280;3097;42.692;23.278;2023-03-25T10:39:40;94425.69;;;22.51;37.80
6132;BME280;3097;42.692;23.278;2023-03-25T10:42:26;94163.13;;;20.86;37.89
6132;BME280;3097;42.692;23.278;2023-03-25T10:44:55;94435.00;;;22.66;38.05
6132;BME280;3097;42.692;23.278;2023-03-25T10:47:25;94408.56;;;22.62;37.18
6132;BME280;3097;42.692;23.278;2023-03-25T10:49:53;94422.59;;;22.49;38.47
6132;BME280;3097;42.692;23.278;2023-03-25T10:52:19;94338.94;;;21.99;37.10
6132;BME280;3097;42.692;23.278;2023-03-25T10:54:49;94401.25;;;22.33;38.48
6132;BME280;3097;42.692;23.278;2023-03-25T10:57:22;94411.66;;;22.47;39.28
6132;BME280;3097;42.692;23.278;2023-03-25T10:59:58;94402.66;;;22.48;37.17
6132;BME280;3097;42.692;23.278;2023-03-25T11:02:27;94393.41;;;22.51;36.55
6132;BME280;3097;42.692;23.278;2023-03-25T11:05:00;94306.06;;;22.02;37.81
6132;BME280;3097;42.692;23.278;2023-03-25T11:07:28;94392.16;;;22.48;35.97
6132;BME280;3097;42.692;23.278;2023-03-25T11:12:45;94380.13;;;22.47;37.50
6132;BME280;3097;42.692;23.278;2023-03-25T11:15:22;94377.03;;;22.45;37.08
6132;BME280;3097;42.692;23.278;2023-03-25T11:18:40;94384.09;;;22.36;35.54
6132;BME280;3097;42.692;23.278;2023-03-25T11:21:08;94385.59;;;22.11;35.04
6132;BME280;3097;42.692;23.278;2023-03-25T11:23:46;94375.84;;;22.03;35.15
6132;BME280;3097;42.692;23.278;2023-03-25T11:28:43;94355.34;;;21.74;36.74
6132;BME280;3097;42.692;23.278;2023-03-25T11:31:19;94354.00;;;21.85;35.23
6132;BME280;3097;42.692;23.278;2023-03-25T11:36:31;94329.69;;;22.02;34.36
6132;BME280;3097;42.692;23.278;2023-03-25T11:39:02;94332.72;;;21.95;34.06
6132;BME280;3097;42.692;23.278;2023-03-25T11:41:34;94344.19;;;21.99;33.86
6132;BME280;3097;42.692;23.278;2023-03-25T11:44:02;94332.75;;;22.04;33.86
6132;BME280;3097;42.692;23.278;2023-03-25T11:46:29;94345.16;;;22.21;34.10
6132;BME280;3097;42.692;23.278;2023-03-25T11:48:55;94324.63;;;22.31;35.21
6132;BME280;3097;42.692;23.278;2023-03-25T11:51:23;94314.28;;;22.35;34.82
6132;BME280;3097;42.692;23.278;2023-03-25T11:53:56;94333.59;;;22.56;34.28
6132;BME280;3097;42.692;23.278;2023-03-25T11:56:29;94331.28;;;22.46;35.03
6132;BME280;3097;42.692;23.278;2023-03-25T11:58:59;94328.50;;;22.51;36.57
6132;BME280;3097;42.692;23.278;2023-03-25T12:01:43;94327.88;;;22.46;35.58
6132;BME280;3097;42.692;23.278;2023-03-25T12:04:23;94336.69;;;22.32;34.96
6132;BME280;3097;42.692;23.278;2023-03-25T12:09:19;94341.28;;;22.10;35.12
6132;BME280;3097;42.692;23.278;2023-03-25T12:15:16;94334.59;;;21.95;34.55
6132;BME280;3097;42.692;23.278;2023-03-25T12:18:11;94321.97;;;21.66;35.60
6132;BME280;3097;42.692;23.278;2023-03-25T12:20:51;94324.22;;;21.50;36.22
6132;BME280;3097;42.692;23.278;2023-03-25T12:26:27;94305.94;;;21.06;35.76
6132;BME280;3097;42.692;23.278;2023-03-25T12:43:05;94321.03;;;21.00;35.45
6132;BME280;3097;42.692;23.278;2023-03-25T12:47:10;94295.47;;;20.75;36.52
6132;BME280;3097;42.692;23.278;2023-03-25T12:52:08;94316.41;;;20.97;36.67
6132;BME280;3097;42.692;23.278;2023-03-25T12:54:48;94308.94;;;20.91;37.06
6132;BME280;3097;42.692;23.278;2023-03-25T13:08:18;94315.22;;;20.81;36.01
6132;BME280;3097;42.692;23.278;2023-03-25T13:10:49;94314.31;;;20.63;36.92
6132;BME280;3097;42.692;23.278;2023-03-25T13:13:23;94310.19;;;20.48;37.71
6132;BME280;3097;42.692;23.278;2023-03-25T13:16:17;94308.16;;;20.45;37.04
6132;BME280;3097;42.692;23.278;2023-03-25T13:18:51;94302.56;;;20.38;36.98
6132;BME280;3097;42.692;23.278;2023-03-25T13:21:27;94166.63;;;19.34;38.26
6132;BME280;3097;42.692;23.278;2023-03-25T13:24:03;94312.47;;;20.28;38.21
6132;BME280;3097;42.692;23.278;2023-03-25T13:26:31;94303.84;;;20.27;37.17
6132;BME280;3097;42.692;23.278;2023-03-25T13:29:01;94322.34;;;20.31;37.26
6132;BME280;3097;42.692;23.278;2023-03-25T13:31:32;94330.50;;;20.16;38.04
6132;BME280;3097;42.692;23.278;2023-03-25T13:34:35;94332.34;;;20.15;37.68
6132;BME280;3097;42.692;23.278;2023-03-25T13:37:28;94331.81;;;20.04;38.62
6132;BME280;3097;42.692;23.278;2023-03-25T13:45:24;94355.16;;;19.60;43.49
6132;BME280;3097;42.692;23.278;2023-03-25T13:48:05;94362.28;;;19.41;44.70
6132;BME280;3097;42.692;23.278;2023-03-25T13:50:31;94369.97;;;19.18;45.09
6132;BME280;3097;42.692;23.278;2023-03-25T13:53:03;94390.03;;;19.23;44.12
6132;BME280;3097;42.692;23.278;2023-03-25T13:55:39;94395.88;;;19.01;46.44
6132;BME280;3097;42.692;23.278;2023-03-25T14:12:25;94382.50;;;18.28;54.18
6132;BME280;3097;42.692;23.278;2023-03-25T14:15:14;94361.34;;;18.10;54.80
6132;BME280;3097;42.692;23.278;2023-03-25T14:17:42;94375.25;;;18.25;54.50
6132;BME280;3097;42.692;23.278;2023-03-25T14:20:16;94370.75;;;18.11;55.35
6132;BME280;3097;42.692;23.278;2023-03-25T14:22:47;94348.28;;;17.92;55.86
6132;BME280;3097;42.692;23.278;2023-03-25T14:25:18;94374.31;;;18.15;56.40
6132;BME280;3097;42.692;23.278;2023-03-25T14:27:48;94314.06;;;17.74;57.83
6132;BME280;3097;42.692;23.278;2023-03-25T14:30:23;94337.19;;;17.81;59.73
6132;BME280;3097;42.692;23.278;2023-03-25T14:32:53;94355.13;;;18.06;60.04
6132;BME280;3097;42.692;23.278;2023-03-25T14:43:25;94315.75;;;17.60;63.04
6132;BME280;3097;42.692;23.278;2023-03-25T14:56:41;94292.09;;;17.57;63.79
6132;BME280;3097;42.692;23.278;2023-03-25T14:59:16;94294.59;;;17.67;64.54
6132;BME280;3097;42.692;23.278;2023-03-25T15:01:44;94287.28;;;17.69;63.96
6132;BME280;3097;42.692;23.278;2023-03-25T15:06:42;94172.00;;;17.11;62.21
6132;BME280;3097;42.692;23.278;2023-03-25T15:09:11;94283.44;;;17.85;61.74
6132;BME280;3097;42.692;23.278;2023-03-25T15:11:41;94285.47;;;17.88;61.95
6132;BME280;3097;42.692;23.278;2023-03-25T15:14:19;94276.94;;;17.83;61.71
6132;BME280;3097;42.692;23.278;2023-03-25T15:19:18;94277.16;;;17.86;60.59
6132;BME280;3097;42.692;23.278;2023-03-25T15:26:54;94255.66;;;17.52;63.09
6132;BME280;3097;42.692;23.278;2023-03-25T15:32:16;94255.44;;;17.48;63.47
6132;BME280;3097;42.692;23.278;2023-03-25T15:35:17;94264.31;;;17.47;63.43
6132;BME280;3097;42.692;23.278;2023-03-25T15:43:51;94266.22;;;17.41;63.78
6132;BME280;3097;42.692;23.278;2023-03-25T15:46:27;94260.28;;;17.36;64.29
6132;BME280;3097;42.692;23.278;2023-03-25T16:02:37;94265.31;;;17.27;65.91
6132;BME280;3097;42.692;23.278;2023-03-25T16:05:04;94249.47;;;17.24;66.17
6132;BME280;3097;42.692;23.278;2023-03-25T16:07:31;94256.94;;;17.30;66.60
6132;BME280;3097;42.692;23.278;2023-03-25T16:10:28;94259.50;;;17.35;67.47
6132;BME280;3097;42.692;23.278;2023-03-25T16:13:00;94248.66;;;17.28;67.81
6132;BME280;3097;42.692;23.278;2023-03-25T16:15:29;94265.25;;;17.32;68.40
6132;BME280;3097;42.692;23.278;2023-03-25T16:17:57;94255.38;;;17.29;68.10
6132;BME280;3097;42.692;23.278;2023-03-25T16:20:27;94241.47;;;17.15;68.29